Time;durP1;ratioP1;P1;durP2;ratioP2;P2;SDS_P1;SDS_P2;PMS_P1;PMS_P2;Temp;Humidity;BMP_temperature;BMP_pressure;BME280_temperature;BME280_humidity;BME280_pressure;Samples;Min_cycle;Max_cycle;Signal;HPM_P1;HPM_P2
2022/12/14 00:01:10;;;;;;;2.85;2.40;;;20.50;39.00;;;;;;5093524;28;20064;-10
2022/12/14 00:03:36;;;;;;;2.53;2.33;;;20.50;38.90;;;;;;5094003;28;20074;-10
2022/12/14 00:06:17;;;;;;;2.88;2.05;;;20.50;38.90;;;;;;5093780;28;20044;-10
2022/12/14 00:08:43;;;;;;;2.63;2.42;;;20.50;38.90;;;;;;5093484;28;20486;-10
2022/12/14 00:11:09;;;;;;;2.50;2.30;;;20.50;38.90;;;;;;5093830;28;20044;-10
2022/12/14 00:13:36;;;;;;;2.75;2.22;;;20.50;39.00;;;;;;5093735;28;20097;-10
2022/12/14 00:16:10;;;;;;;2.50;2.30;;;20.50;38.90;;;;;;5093400;28;20498;-10
2022/12/14 00:18:37;;;;;;;2.95;2.50;;;20.50;39.50;;;;;;5093426;28;20048;-10
2022/12/14 00:21:08;;;;;;;2.55;2.35;;;20.50;38.90;;;;;;5093286;28;20146;-10
2022/12/14 00:23:35;;;;;;;3.08;2.50;;;20.50;39.00;;;;;;5092881;28;20079;-10
2022/12/14 00:26:07;;;;;;;2.85;2.45;;;20.50;38.90;;;;;;5093327;28;20050;-10
2022/12/14 00:28:33;;;;;;;2.95;2.72;;;20.50;39.00;;;;;;5093187;28;20134;-10
2022/12/14 00:30:58;;;;;;;2.63;2.42;;;20.50;38.90;;;;;;5093250;28;20140;-10
2022/12/14 00:33:24;;;;;;;2.67;2.30;;;20.50;38.90;;;;;;5093398;28;20093;-10
2022/12/14 00:35:49;;;;;;;3.00;2.70;;;20.50;39.00;;;;;;5093150;28;20097;-10
2022/12/14 00:38:15;;;;;;;3.08;2.40;;;20.50;38.90;;;;;;5093374;28;20070;-10
2022/12/14 00:40:42;;;;;;;2.65;2.45;;;20.50;39.00;;;;;;5092835;28;20044;-10
2022/12/14 00:43:07;;;;;;;2.97;2.47;;;20.50;38.90;;;;;;5093329;28;20048;-10
2022/12/14 00:45:36;;;;;;;2.75;2.45;;;20.50;38.90;;;;;;5092989;28;20052;-10
2022/12/14 00:48:01;;;;;;;2.50;2.30;;;20.50;38.90;;;;;;5092734;28;20552;-10
2022/12/14 00:50:27;;;;;;;2.40;2.20;;;20.50;38.90;;;;;;5092872;28;20052;-10
2022/12/14 00:52:53;;;;;;;4.00;2.83;;;20.50;39.00;;;;;;5092616;28;20100;-10
2022/12/14 00:55:19;;;;;;;2.50;2.30;;;20.50;38.90;;;;;;5092925;28;20146;-10
2022/12/14 00:57:44;;;;;;;2.60;2.40;;;20.50;39.00;;;;;;5092571;28;20135;-10
2022/12/14 01:00:10;;;;;;;2.40;2.20;;;20.50;38.90;;;;;;5092852;28;20051;-10
2022/12/14 01:02:36;;;;;;;2.90;2.60;;;20.50;38.90;;;;;;5092811;28;20485;-10
2022/12/14 01:05:02;;;;;;;2.83;2.47;;;20.50;38.90;;;;;;5093193;28;20056;-10
2022/12/14 01:07:27;;;;;;;2.20;2.00;;;20.50;38.90;;;;;;5092636;28;20069;-10
2022/12/14 01:09:53;;;;;;;2.58;2.38;;;20.50;38.90;;;;;;5092613;28;20063;-10
2022/12/14 01:12:18;;;;;;;2.97;2.45;;;20.50;39.50;;;;;;5092965;28;20059;-10
2022/12/14 01:14:45;;;;;;;2.88;2.33;;;20.50;38.90;;;;;;5092885;28;20075;-10
2022/12/14 01:17:11;;;;;;;2.40;2.20;;;20.50;39.50;;;;;;5092761;28;20052;-10
2022/12/14 01:19:36;;;;;;;2.58;2.35;;;20.50;39.00;;;;;;5092595;28;20097;-10
2022/12/14 01:22:02;;;;;;;2.00;1.90;;;20.50;39.00;;;;;;5092823;28;20060;-10
2022/12/14 01:24:28;;;;;;;2.60;2.40;;;20.50;39.00;;;;;;5092412;28;20055;-10
2022/12/14 01:26:54;;;;;;;2.40;2.20;;;20.50;38.90;;;;;;5092502;28;20056;-10
2022/12/14 01:29:19;;;;;;;2.60;2.40;;;20.50;38.90;;;;;;5092384;28;20491;-10
2022/12/14 01:31:45;;;;;;;2.88;2.60;;;20.50;38.90;;;;;;5092872;28;20060;-10
2022/12/14 01:34:10;;;;;;;2.67;2.47;;;20.50;38.90;;;;;;5093283;28;20417;-10
2022/12/14 01:36:37;;;;;;;2.50;2.30;;;20.50;38.90;;;;;;5096031;28;20169;-10
2022/12/14 01:39:09;;;;;;;2.50;2.30;;;20.50;38.90;;;;;;5095769;28;20048;-10
2022/12/14 01:41:48;;;;;;;2.58;2.38;;;20.50;38.90;;;;;;5095929;28;20152;-10
2022/12/14 01:44:13;;;;;;;2.60;2.13;;;20.50;38.90;;;;;;5095915;28;20100;-10
2022/12/14 01:46:46;;;;;;;2.45;2.25;;;20.40;39.00;;;;;;5095744;28;20553;-10
2022/12/14 01:49:14;;;;;;;2.78;2.50;;;20.40;39.00;;;;;;5095946;28;20048;-10
2022/12/14 01:51:45;;;;;;;2.83;2.60;;;20.50;39.00;;;;;;5096014;28;20401;-10
2022/12/14 01:54:12;;;;;;;2.10;1.90;;;20.50;39.00;;;;;;5096242;28;20059;-10
2022/12/14 01:56:41;;;;;;;2.60;2.40;;;20.50;39.00;;;;;;5095386;28;20052;-10
2022/12/14 01:59:15;;;;;;;2.40;2.20;;;20.50;39.00;;;;;;5095528;28;20123;-10
2022/12/14 02:01:41;;;;;;;3.10;2.80;;;20.40;38.90;;;;;;5095854;28;20101;-10
2022/12/14 02:04:09;;;;;;;2.78;2.50;;;20.50;39.00;;;;;;5095700;28;20052;-10
2022/12/14 02:06:39;;;;;;;2.63;2.42;;;20.50;39.00;;;;;;5095472;28;20088;-10
2022/12/14 02:09:10;;;;;;;2.65;2.45;;;20.50;39.00;;;;;;5095224;28;20044;-10
2022/12/14 02:12:18;;;;;;;2.22;2.03;;;20.50;39.50;;;;;;5095452;28;20059;-10
2022/12/14 02:14:45;;;;;;;2.78;2.45;;;20.50;39.50;;;;;;5083166;28;20139;-10
2022/12/14 02:17:13;;;;;;;2.35;2.15;;;20.50;39.00;;;;;;5095259;28;20040;-10
2022/12/14 02:19:42;;;;;;;2.40;2.20;;;20.50;38.90;;;;;;5095053;28;20097;-10
2022/12/14 02:22:39;;;;;;;3.05;2.50;;;20.50;38.90;;;;;;5095712;28;20051;-11
2022/12/14 02:25:20;;;;;;;2.45;2.25;;;20.50;38.90;;;;;;5095205;28;20075;-10
2022/12/14 02:27:51;;;;;;;2.40;2.20;;;20.50;38.90;;;;;;5095100;28;20082;-10
2022/12/14 02:30:23;;;;;;;2.88;2.40;;;20.50;38.90;;;;;;5095371;28;20059;-10
2022/12/14 02:33:01;;;;;;;2.70;2.50;;;20.50;38.90;;;;;;5095397;28;20164;-10
2022/12/14 02:35:34;;;;;;;3.15;2.83;;;20.40;38.90;;;;;;5093751;28;20528;-10
2022/12/14 02:38:21;;;;;;;2.15;1.95;;;20.50;39.00;;;;;;5094623;28;20059;-10
2022/12/14 02:40:54;;;;;;;2.47;2.28;;;20.50;39.00;;;;;;5095052;28;20089;-10
2022/12/14 02:43:36;;;;;;;2.75;2.35;;;20.50;38.90;;;;;;5095014;28;20078;-10
2022/12/14 02:46:21;;;;;;;2.50;2.30;;;20.40;38.90;;;;;;5093959;28;20143;-10
2022/12/14 02:49:14;;;;;;;2.70;2.30;;;20.50;39.00;;;;;;5094603;28;20060;-10
2022/12/14 02:52:01;;;;;;;2.60;2.40;;;20.50;39.00;;;;;;5050484;28;20124;-10
2022/12/14 02:55:12;;;;;;;2.72;2.40;;;20.50;39.00;;;;;;5094652;28;20063;-10
2022/12/14 02:57:52;;;;;;;3.10;2.47;;;20.40;38.90;;;;;;5094319;28;20058;-10
2022/12/14 03:00:19;;;;;;;2.75;2.33;;;20.50;38.90;;;;;;5094962;28;20339;-10
2022/12/14 03:02:47;;;;;;;4.53;2.28;;;20.50;39.00;;;;;;5094325;28;20085;-10
2022/12/14 03:05:13;;;;;;;2.47;2.28;;;20.40;38.90;;;;;;5094894;28;20051;-10
2022/12/14 03:07:46;;;;;;;2.42;2.22;;;20.50;38.90;;;;;;5092423;28;20052;-10
2022/12/14 03:10:17;;;;;;;2.85;2.55;;;20.50;38.90;;;;;;5094526;28;20474;-10
2022/12/14 03:12:49;;;;;;;3.87;2.47;;;20.50;38.90;;;;;;5094732;28;20063;-10
2022/12/14 03:15:17;;;;;;;2.40;2.20;;;20.40;38.80;;;;;;5095091;28;20401;-10
2022/12/14 03:17:47;;;;;;;2.10;1.90;;;20.50;38.90;;;;;;5094110;28;20074;-10
2022/12/14 03:20:21;;;;;;;3.28;2.72;;;20.50;39.50;;;;;;5094708;28;20051;-10
2022/12/14 03:22:56;;;;;;;2.83;2.58;;;20.40;38.90;;;;;;5094147;28;20048;-10
2022/12/14 03:25:36;;;;;;;2.78;2.45;;;20.50;38.90;;;;;;5094605;28;20132;-10
2022/12/14 03:28:10;;;;;;;2.42;2.20;;;20.40;38.90;;;;;;5094030;28;20139;-10
2022/12/14 03:30:41;;;;;;;2.22;2.08;;;20.50;38.90;;;;;;5094088;28;20089;-10
2022/12/14 03:33:10;;;;;;;;;;;20.50;38.80;;;;;;5095104;28;20125;-10
2022/12/14 03:35:59;;;;;;;2.75;2.35;;;20.50;38.90;;;;;;5094092;28;20404;-10
2022/12/14 03:38:28;;;;;;;2.60;2.40;;;20.50;38.80;;;;;;5094242;28;20140;-10
2022/12/14 03:41:24;;;;;;;2.80;2.60;;;20.50;38.90;;;;;;5093961;28;20082;-10
2022/12/14 03:43:58;;;;;;;2.40;2.20;;;20.50;38.90;;;;;;5094049;28;20052;-10
2022/12/14 03:46:30;;;;;;;2.60;2.38;;;20.50;38.90;;;;;;5094330;28;20048;-10
2022/12/14 03:49:08;;;;;;;2.90;2.60;;;20.50;38.90;;;;;;5093781;28;20089;-10
2022/12/14 03:51:52;;;;;;;2.65;2.45;;;20.50;38.80;;;;;;5094236;28;20094;-10
2022/12/14 03:54:30;;;;;;;2.60;2.40;;;20.50;38.80;;;;;;5093787;28;20492;-10
2022/12/14 03:57:05;;;;;;;2.60;2.40;;;20.50;38.80;;;;;;5093340;28;20548;-10
2022/12/14 04:00:00;;;;;;;2.95;2.38;;;20.50;38.90;;;;;;5093754;28;20048;-10
2022/12/14 04:02:33;;;;;;;2.42;2.22;;;20.50;38.80;;;;;;5093521;28;20079;-10
2022/12/14 04:05:10;;;;;;;2.55;2.35;;;20.50;38.80;;;;;;5093645;28;20505;-10
2022/12/14 04:08:00;;;;;;;2.67;2.40;;;20.50;38.80;;;;;;5093375;28;20060;-10
2022/12/14 04:19:05;;;;;;;2.75;2.53;;;20.50;38.90;;;;;;5093707;28;20147;-10
2022/12/14 04:21:43;;;;;;;2.42;2.22;;;20.50;38.90;;;;;;5093277;28;20066;-10
2022/12/14 04:27:37;;;;;;;2.20;2.00;;;20.50;38.80;;;;;;5093285;28;20052;-10
2022/12/14 04:30:05;;;;;;;2.63;2.42;;;20.50;38.80;;;;;;5092927;28;20044;-10
2022/12/14 04:32:46;;;;;;;2.80;2.50;;;20.50;38.80;;;;;;5093201;28;20482;-10
2022/12/14 04:35:21;;;;;;;;;;;20.50;38.80;;;;;;5093683;28;20056;-10
2022/12/14 04:37:51;;;;;;;2.35;2.17;;;20.50;38.80;;;;;;5093117;28;19923;-11
2022/12/14 04:40:30;;;;;;;2.47;2.28;;;20.50;38.70;;;;;;5093091;28;20044;-10
2022/12/14 04:43:03;;;;;;;2.25;2.05;;;20.60;38.80;;;;;;5092683;28;20482;-10
2022/12/14 04:46:00;;;;;;;2.72;2.53;;;20.50;38.70;;;;;;5093080;28;20044;-10
2022/12/14 04:48:30;;;;;;;3.70;3.13;;;20.50;38.70;;;;;;5054233;28;20078;-11
2022/12/14 04:51:21;;;;;;;2.40;2.20;;;20.50;39.20;;;;;;5092899;28;20060;-10
2022/12/14 04:53:59;;;;;;;2.15;1.95;;;20.50;38.70;;;;;;5093159;28;20052;-10
2022/12/14 04:56:48;;;;;;;3.05;2.75;;;20.50;38.70;;;;;;5092722;28;20068;-10
2022/12/14 04:59:14;;;;;;;2.90;2.70;;;20.50;38.70;;;;;;5092773;28;20071;-10
2022/12/14 05:01:47;;;;;;;2.63;2.40;;;20.50;38.70;;;;;;5093087;28;20091;-10
2022/12/14 05:04:23;;;;;;;2.60;2.38;;;20.50;38.60;;;;;;5093107;28;20048;-10
2022/12/14 05:07:09;;;;;;;2.58;2.38;;;20.50;38.70;;;;;;5092587;28;20048;-10
2022/12/14 05:09:42;;;;;;;2.83;2.60;;;20.50;38.70;;;;;;5092394;28;20052;-10
2022/12/14 05:12:28;;;;;;;2.92;2.55;;;20.50;38.70;;;;;;5092670;28;20060;-10
2022/12/14 05:15:04;;;;;;;2.50;2.30;;;20.50;38.60;;;;;;5092579;28;20044;-10
2022/12/14 05:17:33;;;;;;;2.63;2.42;;;20.50;38.60;;;;;;5092229;28;20103;-11
2022/12/14 05:19:58;;;;;;;2.55;2.35;;;20.50;38.50;;;;;;5092759;28;20485;-10
2022/12/14 05:22:24;;;;;;;2.85;2.60;;;20.50;38.60;;;;;;5092512;28;20052;-10
2022/12/14 05:24:49;;;;;;;2.60;2.40;;;20.50;38.60;;;;;;5092805;28;20128;-10
2022/12/14 05:27:15;;;;;;;2.40;2.20;;;20.50;38.60;;;;;;5092767;28;20098;-10
2022/12/14 05:29:41;;;;;;;2.60;2.40;;;20.50;38.60;;;;;;5092094;28;20048;-10
2022/12/14 05:32:10;;;;;;;2.50;2.30;;;20.40;38.60;;;;;;5092732;28;20056;-10
2022/12/14 05:34:35;;;;;;;2.25;2.05;;;20.50;38.60;;;;;;5092411;28;20048;-10
2022/12/14 05:37:01;;;;;;;2.85;2.47;;;20.50;38.60;;;;;;5092559;28;20062;-10
2022/12/14 05:39:27;;;;;;;2.42;2.22;;;20.50;38.50;;;;;;5092481;28;20043;-10
2022/12/14 05:41:52;;;;;;;2.50;2.25;;;20.50;38.60;;;;;;5092588;28;20058;-10
2022/12/14 05:44:18;;;;;;;2.58;2.38;;;20.50;38.50;;;;;;5092576;28;20048;-10
2022/12/14 05:46:44;;;;;;;2.35;2.15;;;20.50;38.50;;;;;;5091965;28;20052;-10
2022/12/14 05:49:09;;;;;;;2.97;2.60;;;20.50;38.60;;;;;;5092024;28;20052;-10
2022/12/14 05:51:35;;;;;;;2.53;2.33;;;20.50;38.50;;;;;;5092421;28;20539;-10
2022/12/14 05:54:01;;;;;;;2.70;2.50;;;20.50;38.60;;;;;;5092174;28;20059;-10
2022/12/14 05:56:26;;;;;;;2.63;2.42;;;20.50;38.60;;;;;;5091819;28;20109;-10
2022/12/14 05:58:52;;;;;;;2.85;2.50;;;20.50;38.50;;;;;;5092062;28;20052;-10
2022/12/14 06:01:18;;;;;;;2.40;2.20;;;20.50;38.50;;;;;;5091994;28;20044;-10
2022/12/14 06:03:43;;;;;;;2.63;2.40;;;20.50;38.50;;;;;;5092038;28;20537;-10
2022/12/14 06:06:11;;;;;;;2.60;2.33;;;20.50;38.50;;;;;;5091941;28;20432;-10
2022/12/14 06:08:40;;;;;;;2.58;2.35;;;20.50;38.50;;;;;;5092118;28;20056;-10
2022/12/14 06:11:09;;;;;;;3.28;2.67;;;20.50;38.50;;;;;;5091801;28;20044;-10
2022/12/14 06:13:36;;;;;;;2.90;2.67;;;20.50;38.50;;;;;;5091890;28;20051;-10
2022/12/14 06:16:21;;;;;;;3.28;2.72;;;20.50;38.50;;;;;;5091934;28;20055;-10
2022/12/14 06:18:53;;;;;;;3.15;2.42;;;20.50;38.50;;;;;;5091983;28;20453;-10
2022/12/14 06:21:20;;;;;;;2.72;2.53;;;20.50;38.50;;;;;;5092848;28;20044;-10
2022/12/14 06:23:46;;;;;;;2.60;2.40;;;20.50;38.50;;;;;;5095281;28;20047;-10
2022/12/14 06:26:13;;;;;;;2.33;2.13;;;20.50;38.60;;;;;;5095163;28;20056;-10
2022/12/14 06:28:40;;;;;;;2.80;2.60;;;20.50;39.10;;;;;;5095210;28;20409;-10
2022/12/14 06:31:06;;;;;;;2.90;2.40;;;20.50;38.80;;;;;;5094985;28;20060;-10
2022/12/14 06:33:34;;;;;;;2.85;2.60;;;20.50;38.50;;;;;;5094962;28;20054;-10
2022/12/14 06:36:00;;;;;;;2.55;2.22;;;20.50;39.00;;;;;;5095058;28;20558;-10
2022/12/14 06:38:26;;;;;;;2.80;2.38;;;20.50;38.60;;;;;;5094910;28;20071;-10
2022/12/14 06:40:51;;;;;;;2.55;2.35;;;20.50;38.60;;;;;;5094878;28;20493;-10
2022/12/14 06:43:17;;;;;;;3.35;2.70;;;20.50;38.50;;;;;;5094857;28;20087;-10
2022/12/14 06:45:44;;;;;;;2.95;2.65;;;20.50;39.00;;;;;;5094946;28;20491;-10
2022/12/14 06:48:11;;;;;;;2.63;2.42;;;20.50;38.50;;;;;;5094906;28;20134;-10
2022/12/14 06:50:37;;;;;;;3.08;2.72;;;20.50;38.50;;;;;;5094690;28;20052;-10
2022/12/14 06:53:02;;;;;;;2.60;2.40;;;20.50;38.50;;;;;;5094535;28;20048;-10
2022/12/14 06:55:28;;;;;;;3.47;2.55;;;20.60;38.50;;;;;;5094675;28;20066;-10
2022/12/14 06:57:55;;;;;;;2.65;2.45;;;20.50;38.50;;;;;;5094158;28;20056;-10
2022/12/14 07:00:22;;;;;;;2.80;2.60;;;20.60;38.50;;;;;;5095008;28;20052;-10
2022/12/14 07:02:49;;;;;;;2.35;2.15;;;20.60;38.50;;;;;;5094371;28;20493;-10
2022/12/14 07:05:15;;;;;;;2.20;2.00;;;20.60;38.40;;;;;;5094850;28;20056;-10
2022/12/14 07:07:41;;;;;;;2.95;2.50;;;20.60;38.50;;;;;;5094421;28;20062;-10
2022/12/14 07:10:08;;;;;;;3.17;2.72;;;20.60;38.40;;;;;;5094371;28;20382;-10
2022/12/14 07:12:34;;;;;;;2.67;2.38;;;20.60;38.50;;;;;;5094524;28;20134;-10
2022/12/14 07:14:59;;;;;;;2.58;2.22;;;20.60;38.40;;;;;;5094848;28;20136;-10
2022/12/14 07:17:25;;;;;;;2.40;2.20;;;20.60;38.40;;;;;;5094198;28;20090;-10
2022/12/14 07:19:52;;;;;;;2.58;2.30;;;20.60;38.40;;;;;;5094317;28;20455;-10
2022/12/14 07:22:18;;;;;;;2.63;2.40;;;20.60;38.40;;;;;;5094181;28;20501;-10
2022/12/14 07:24:44;;;;;;;3.47;2.55;;;20.60;38.40;;;;;;5094186;28;20079;-10
2022/12/14 07:27:10;;;;;;;2.45;2.25;;;20.70;38.40;;;;;;5093480;28;20086;-10
2022/12/14 07:29:35;;;;;;;2.78;2.58;;;20.60;38.80;;;;;;5093879;28;20079;-10
2022/12/14 07:32:01;;;;;;;2.63;2.38;;;20.70;38.30;;;;;;5093883;28;20044;-10
2022/12/14 07:34:27;;;;;;;3.53;2.30;;;20.60;38.20;;;;;;5094181;28;20067;-10
2022/12/14 07:36:53;;;;;;;2.55;2.35;;;20.70;38.30;;;;;;5093961;28;20127;-10
2022/12/14 07:39:19;;;;;;;2.85;2.42;;;20.60;38.20;;;;;;5094300;28;20081;-10
2022/12/14 07:41:47;;;;;;;2.40;2.20;;;20.70;38.30;;;;;;5093858;28;20063;-10
2022/12/14 07:44:19;;;;;;;2.78;2.47;;;20.60;38.20;;;;;;5075740;28;20155;-10
2022/12/14 07:46:45;;;;;;;2.00;1.80;;;20.70;38.30;;;;;;5094251;28;20097;-10
2022/12/14 07:49:11;;;;;;;2.30;2.10;;;20.70;38.90;;;;;;5092715;28;20077;-10
2022/12/14 07:51:40;;;;;;;2.88;2.58;;;20.60;38.30;;;;;;5089972;28;20044;-10
2022/12/14 07:54:07;;;;;;;2.47;2.28;;;20.60;38.30;;;;;;5093793;28;20055;-10
2022/12/14 07:56:36;;;;;;;3.08;2.78;;;20.60;38.30;;;;;;5093559;28;20048;-10
2022/12/14 07:59:04;;;;;;;2.60;2.40;;;20.60;38.30;;;;;;5093634;28;20051;-10
2022/12/14 08:01:33;;;;;;;2.65;2.42;;;20.60;38.30;;;;;;5093754;28;20056;-10
2022/12/14 08:04:10;;;;;;;2.63;2.13;;;20.60;38.30;;;;;;5093558;28;20052;-10
2022/12/14 08:06:37;;;;;;;2.90;2.60;;;20.60;38.40;;;;;;5093906;28;20052;-10
2022/12/14 08:09:04;;;;;;;2.58;2.38;;;20.60;38.30;;;;;;5093508;28;20138;-10
2022/12/14 08:11:29;;;;;;;2.30;2.10;;;20.60;38.30;;;;;;5093432;28;20060;-10
2022/12/14 08:13:58;;;;;;;2.97;2.63;;;20.60;38.30;;;;;;5093449;28;20048;-10
2022/12/14 08:16:25;;;;;;;2.45;2.25;;;20.60;38.50;;;;;;5093443;28;20051;-10
2022/12/14 08:18:55;;;;;;;2.85;2.42;;;20.60;38.90;;;;;;5093462;28;20052;-10
2022/12/14 08:21:22;;;;;;;3.10;2.75;;;20.60;38.40;;;;;;5093282;28;20531;-10
2022/12/14 08:23:48;;;;;;;3.25;2.47;;;20.60;38.30;;;;;;5093319;28;20504;-10
2022/12/14 08:26:14;;;;;;;2.50;2.30;;;20.60;38.30;;;;;;5093338;28;20044;-10
2022/12/14 08:28:40;;;;;;;2.63;2.42;;;20.60;38.30;;;;;;5093410;28;20047;-10
2022/12/14 08:31:09;;;;;;;2.40;2.20;;;20.60;38.40;;;;;;5093355;28;20056;-10
2022/12/14 08:33:36;;;;;;;2.80;2.50;;;20.60;38.30;;;;;;5093031;28;20059;-10
2022/12/14 08:36:10;;;;;;;2.42;2.22;;;20.60;38.30;;;;;;5093180;28;20055;-10
2022/12/14 08:38:37;;;;;;;2.70;2.50;;;20.60;38.30;;;;;;5092724;28;20102;-10
2022/12/14 08:41:11;;;;;;;3.28;2.65;;;20.60;38.30;;;;;;5091278;28;20134;-10
2022/12/14 08:43:37;;;;;;;3.00;2.65;;;20.60;38.30;;;;;;5091555;28;20482;-11
2022/12/14 08:46:04;;;;;;;2.55;2.35;;;20.60;38.30;;;;;;5090988;28;20043;-11
2022/12/14 08:48:30;;;;;;;2.90;2.70;;;20.60;38.30;;;;;;5092928;28;20052;-10
2022/12/14 08:51:04;;;;;;;2.60;2.40;;;20.60;38.20;;;;;;5091593;28;20078;-11
2022/12/14 08:53:30;;;;;;;2.78;2.45;;;20.60;38.20;;;;;;5092651;28;20149;-10
2022/12/14 08:55:56;;;;;;;3.45;2.28;;;20.60;38.20;;;;;;5092777;28;20048;-11
2022/12/14 08:58:21;;;;;;;2.33;2.13;;;20.60;38.20;;;;;;5092332;28;20059;-10
2022/12/14 09:00:47;;;;;;;2.60;2.40;;;20.60;38.10;;;;;;5092269;28;20083;-10
2022/12/14 09:03:12;;;;;;;2.92;2.70;;;20.60;38.30;;;;;;5092327;28;20432;-10
2022/12/14 09:05:38;;;;;;;3.30;2.55;;;20.70;38.20;;;;;;5092402;28;20130;-10
2022/12/14 09:08:04;;;;;;;3.97;2.63;;;20.70;38.20;;;;;;5092325;28;20423;-10
2022/12/14 09:10:30;;;;;;;4.57;2.60;;;20.70;38.30;;;;;;5092172;28;20120;-10
2022/12/14 09:12:58;;;;;;;2.40;2.20;;;20.70;38.30;;;;;;5092474;28;20142;-10
2022/12/14 09:15:24;;;;;;;2.53;2.33;;;20.70;38.20;;;;;;5074292;28;20052;-10
2022/12/14 09:17:50;;;;;;;2.95;2.65;;;20.70;38.20;;;;;;5092229;28;20048;-10
2022/12/14 09:20:17;;;;;;;2.38;2.17;;;20.70;38.20;;;;;;5090334;28;20378;-10
2022/12/14 09:22:43;;;;;;;3.78;2.58;;;20.70;38.10;;;;;;5073999;28;20082;-10
2022/12/14 09:25:09;;;;;;;2.60;2.40;;;20.70;38.10;;;;;;5092101;28;20051;-10
2022/12/14 09:27:35;;;;;;;4.47;2.67;;;20.70;38.20;;;;;;5092327;28;20055;-10
2022/12/14 09:30:01;;;;;;;3.15;2.60;;;20.70;38.20;;;;;;5092318;28;20052;-10
2022/12/14 09:32:28;;;;;;;2.70;2.50;;;20.60;38.20;;;;;;5092026;28;20147;-10
2022/12/14 09:34:54;;;;;;;2.63;2.40;;;20.70;38.20;;;;;;5092079;28;20090;-10
2022/12/14 09:37:20;;;;;;;3.40;3.05;;;20.60;38.10;;;;;;5092196;28;20073;-11
2022/12/14 09:39:46;;;;;;;3.03;2.72;;;20.70;38.20;;;;;;5089830;28;20083;-11
2022/12/14 09:42:34;;;;;;;2.70;2.50;;;20.70;37.90;;;;;;5089786;28;20134;-11
2022/12/14 09:45:08;;;;;;;2.80;2.45;;;20.70;38.00;;;;;;5089803;28;20096;-11
2022/12/14 09:47:38;;;;;;;3.03;2.47;;;20.70;38.00;;;;;;5090329;28;20522;-12
2022/12/14 09:50:09;;;;;;;3.60;2.45;;;20.70;38.00;;;;;;5090345;28;20048;-10
2022/12/14 09:52:41;;;;;;;;;;;20.70;38.00;;;;;;5092433;28;20460;-10
2022/12/14 09:55:28;;;;;;;3.25;2.40;;;20.60;38.00;;;;;;5092595;28;19969;-10
2022/12/14 09:58:15;;;;;;;2.67;2.47;;;20.70;38.00;;;;;;5093912;28;20409;-10
2022/12/14 10:00:47;;;;;;;3.03;2.70;;;20.70;38.00;;;;;;5095220;28;20075;-11
2022/12/14 10:03:19;;;;;;;2.90;2.47;;;20.70;38.00;;;;;;5095376;28;20052;-10
2022/12/14 10:06:20;;;;;;;3.15;2.83;;;20.70;38.00;;;;;;5095403;28;20435;-10
2022/12/14 10:09:16;;;;;;;2.90;2.65;;;20.70;38.00;;;;;;5060195;28;20467;-11
2022/12/14 10:12:07;;;;;;;2.90;2.42;;;20.70;38.00;;;;;;5094509;28;20050;-12
2022/12/14 10:14:52;;;;;;;3.67;2.58;;;20.70;38.00;;;;;;5092629;28;20059;-11
2022/12/14 10:17:28;;;;;;;2.60;2.40;;;20.70;38.00;;;;;;5092638;28;20079;-11
2022/12/14 10:19:59;;;;;;;3.08;2.65;;;20.70;37.90;;;;;;5093706;28;20097;-10
2022/12/14 10:22:30;;;;;;;2.70;2.50;;;20.70;37.90;;;;;;5094254;28;20098;-12
2022/12/14 10:25:05;;;;;;;3.50;2.85;;;20.60;38.00;;;;;;5093980;28;20058;-10
2022/12/14 10:27:33;;;;;;;2.88;2.58;;;20.70;38.00;;;;;;5094479;28;20493;-10
2022/12/14 10:30:02;;;;;;;3.38;2.70;;;20.70;38.00;;;;;;5093477;28;20074;-10
2022/12/14 10:32:43;;;;;;;2.58;2.38;;;20.60;37.90;;;;;;5094947;28;20048;-10
2022/12/14 10:35:27;;;;;;;2.63;2.35;;;20.70;38.00;;;;;;5095070;28;20058;-10
2022/12/14 10:38:16;;;;;;;2.95;2.45;;;20.70;37.90;;;;;;5094919;28;20056;-10
2022/12/14 10:41:14;;;;;;;2.17;2.00;;;20.70;37.90;;;;;;5094791;28;20059;-10
2022/12/14 10:43:46;;;;;;;2.67;2.47;;;20.70;38.00;;;;;;5094794;28;20059;-10
2022/12/14 10:46:17;;;;;;;3.40;2.90;;;20.70;38.00;;;;;;5094647;28;20055;-12
2022/12/14 10:48:53;;;;;;;2.55;2.35;;;20.70;37.90;;;;;;5094939;28;20493;-12
2022/12/14 10:52:20;;;;;;;4.13;2.58;;;20.70;38.00;;;;;;5094325;28;20054;-12
2022/12/14 10:54:51;;;;;;;2.42;2.22;;;20.60;38.40;;;;;;4989718;28;20061;-12
2022/12/14 10:57:25;;;;;;;2.70;1.70;;;20.60;38.00;;;;;;5094607;28;20489;-11
2022/12/14 10:59:52;;;;;;;2.83;2.47;;;20.60;37.90;;;;;;5094946;28;20643;-12
2022/12/14 11:02:21;;;;;;;3.05;2.40;;;20.60;37.90;;;;;;5076577;28;20051;-11
2022/12/14 11:04:49;;;;;;;2.33;2.13;;;20.70;37.90;;;;;;5094503;28;20062;-12
2022/12/14 11:07:29;;;;;;;2.63;2.40;;;20.60;37.90;;;;;;5093502;28;20058;-12
2022/12/14 11:10:22;;;;;;;3.10;2.80;;;20.70;38.00;;;;;;5059884;28;20432;-12
2022/12/14 11:13:12;;;;;;;2.63;2.40;;;20.70;38.00;;;;;;5094492;28;20052;-12
2022/12/14 11:15:50;;;;;;;3.08;2.75;;;20.70;37.90;;;;;;5076187;28;20457;-12
2022/12/14 11:18:15;;;;;;;3.00;2.70;;;20.70;37.90;;;;;;5094256;28;20047;-12
2022/12/14 11:20:54;;;;;;;2.70;2.50;;;20.70;37.90;;;;;;5093981;28;20060;-12
2022/12/14 11:23:35;;;;;;;3.78;2.85;;;20.60;37.90;;;;;;5092946;28;20384;-12
2022/12/14 11:26:03;;;;;;;2.95;2.42;;;20.70;38.00;;;;;;5092276;28;20047;-12
2022/12/14 11:28:39;;;;;;;2.47;2.28;;;20.70;37.90;;;;;;5094121;28;20056;-12
2022/12/14 11:31:13;;;;;;;3.90;2.38;;;20.70;38.00;;;;;;5091135;28;20432;-12
2022/12/14 11:33:46;;;;;;;2.92;2.60;;;20.70;38.00;;;;;;5094324;28;20094;-12
2022/12/14 11:36:33;;;;;;;2.60;2.40;;;20.60;37.90;;;;;;5093988;28;20056;-12
2022/12/14 11:39:02;;;;;;;2.38;2.17;;;20.70;38.00;;;;;;5094510;28;20058;-12
2022/12/14 11:41:35;;;;;;;3.58;2.47;;;20.60;37.90;;;;;;5093826;28;20052;-12
2022/12/14 11:44:05;;;;;;;3.03;2.75;;;20.70;38.00;;;;;;5093936;28;20121;-12
2022/12/14 11:47:35;;;;;;;2.60;2.33;;;20.60;37.90;;;;;;5093564;28;20119;-13
2022/12/14 11:50:20;;;;;;;3.13;2.58;;;20.70;37.90;;;;;;4989545;28;20057;-12
2022/12/14 11:52:46;;;;;;;2.95;2.65;;;20.70;38.00;;;;;;5084408;28;20048;-13
2022/12/14 11:55:14;;;;;;;2.95;2.38;;;20.70;37.90;;;;;;5092550;28;20098;-12
2022/12/14 11:57:49;;;;;;;3.17;2.50;;;20.70;37.90;;;;;;5091835;28;20058;-13
2022/12/14 12:00:29;;;;;;;2.22;2.03;;;20.60;37.90;;;;;;5092114;28;20048;-13
2022/12/14 12:03:01;;;;;;;2.55;2.33;;;20.60;38.00;;;;;;5092821;28;20060;-13
2022/12/14 12:05:30;;;;;;;3.30;2.83;;;20.60;38.00;;;;;;5091523;28;20138;-13
2022/12/14 12:07:58;;;;;;;2.63;2.35;;;20.60;38.00;;;;;;5091589;28;20531;-12
2022/12/14 12:10:42;;;;;;;3.40;2.90;;;20.60;38.00;;;;;;5091410;28;20086;-13
2022/12/14 12:13:39;;;;;;;2.67;2.40;;;20.60;38.00;;;;;;5091847;28;20059;-12
2022/12/14 12:16:14;;;;;;;2.75;2.55;;;20.60;38.00;;;;;;5092007;28;20064;-12
2022/12/14 12:18:46;;;;;;;2.60;2.40;;;20.60;37.90;;;;;;5091265;28;20539;-13
2022/12/14 12:21:28;;;;;;;2.80;2.60;;;20.60;37.90;;;;;;5093365;28;20055;-12
2022/12/14 12:24:17;;;;;;;2.53;2.20;;;20.70;37.90;;;;;;5075473;28;20048;-12
2022/12/14 12:26:57;;;;;;;3.97;2.80;;;20.60;37.80;;;;;;5092830;28;20051;-12
2022/12/14 12:29:33;;;;;;;3.30;2.58;;;20.70;37.80;;;;;;5092180;28;20044;-13
2022/12/14 12:32:25;;;;;;;2.78;2.55;;;20.70;37.80;;;;;;5071909;28;20054;-12
2022/12/14 12:35:07;;;;;;;3.25;2.95;;;20.70;37.80;;;;;;5093109;28;20082;-12
2022/12/14 12:37:41;;;;;;;2.90;2.65;;;20.70;37.70;;;;;;5093283;28;20058;-12
2022/12/14 12:40:16;;;;;;;3.72;2.72;;;20.70;37.40;;;;;;5074230;28;20056;-12
2022/12/14 12:43:11;;;;;;;2.60;2.40;;;20.70;37.50;;;;;;5093461;28;20056;-11
2022/12/14 12:45:50;;;;;;;3.17;2.88;;;20.70;37.50;;;;;;5079286;28;20121;-12
2022/12/14 12:48:40;;;;;;;2.92;2.63;;;20.70;37.50;;;;;;5092908;28;20059;-12
2022/12/14 12:51:20;;;;;;;2.92;2.63;;;20.70;37.60;;;;;;5072036;28;20052;-10
2022/12/14 12:53:58;;;;;;;3.15;2.40;;;20.70;37.60;;;;;;5090414;28;20441;-13
2022/12/14 12:56:39;;;;;;;3.15;2.85;;;20.70;37.60;;;;;;5091235;28;20055;-12
2022/12/14 12:59:05;;;;;;;3.53;2.50;;;20.70;37.70;;;;;;5091745;28;20051;-12
2022/12/14 13:01:36;;;;;;;3.17;2.88;;;20.60;37.60;;;;;;5091951;28;20450;-12
2022/12/14 13:04:09;;;;;;;4.53;2.67;;;20.60;37.60;;;;;;5092263;28;20067;-12
2022/12/14 13:06:51;;;;;;;2.70;2.45;;;20.60;37.70;;;;;;5092877;28;20477;-12
2022/12/14 13:09:30;;;;;;;3.20;2.90;;;20.60;37.70;;;;;;5092548;28;20067;-12
2022/12/14 13:11:57;;;;;;;2.97;2.63;;;20.60;37.60;;;;;;5092618;28;20455;-11
2022/12/14 13:14:26;;;;;;;3.10;2.65;;;20.70;37.70;;;;;;5092411;28;20060;-12
2022/12/14 13:16:53;;;;;;;3.85;2.58;;;20.60;37.60;;;;;;5092441;28;20044;-11
2022/12/14 13:19:35;;;;;;;3.15;2.83;;;20.60;37.70;;;;;;5092398;28;20456;-12
2022/12/14 13:22:01;;;;;;;3.03;2.50;;;20.60;37.70;;;;;;5092353;28;20044;-12
2022/12/14 13:24:27;;;;;;;4.32;2.88;;;20.60;37.70;;;;;;5074279;28;20063;-11
2022/12/14 13:27:09;;;;;;;2.90;2.55;;;20.60;37.70;;;;;;5092357;28;20470;-12